No particular awareness of the weather is required.    There are no Weather-warnings


Meteo18 Weather Cam more information Meteo18 Weather Cam


Thunder radar more information blitzortung!


Rain radar more information rain snow radar


Visit our other weather sites:

Template documentation
and downloads

And another site



Weather Underground History page Text

Daily Summary for June 25, 2017 Units:  English    Metric   Both
« Previous Day
Next Day »
Daily Weekly Monthly Yearly Custom
  High: Low: Average:
Temperature: TemperatureC °F 13.2 °F 19.6 °F
Dew Point: DewpointC °F 10.7 °F 14 °F
Humidity: Humidity % 53 % 70 %
Wind Speed: WindSpeedKMH mph 0.0 mph 5.3 mph
Wind Gust: WindSpeedGustKMH mph - -
Wind:- - WSW
Pressure: PressurehPa in 1016.5 in -
Precipitation: 0.0 in    
Historical Graphs
 
 
Tabular Data for June 25, 2017
Time Temperature Dew Point Pressure Wind Wind Speed Wind Gust Humidity Rainfall Rate (Hourly)
TemperatureC °F DewpointC °F PressurehPa in Calm     Humidity % HourlyPrecipMM in
00:02 17.6 °F 12.7 °F 1018.8 in Calm   1.6 mph 73 % 0.0 in
00:12 17.3 °F 12.6 °F 1018.8 in Calm     74 % 0.0 in
00:17 17.2 °F 12.5 °F 1019.2 in Calm     74 % 0.0 in
00:22 17.1 °F 12.4 °F 1018.8 in Calm     74 % 0.0 in
00:27 16.9 °F 12.4 °F 1018.8 in Calm     75 % 0.0 in
00:32 16.8 °F 12.3 °F 1018.8 in Calm     75 % 0.0 in
00:37 16.9 °F 12.4 °F 1018.8 in SSW 3.2 mph   75 % 0.0 in
00:42 17.6 °F 12.9 °F 1018.8 in SW 4.8 mph 4.8 mph 74 % 0.0 in
00:52 18.3 °F 12.7 °F 1018.8 in WSW 3.2 mph 8.0 mph 70 % 0.0 in
01:02 18.6 °F 12.8 °F 1018.8 in West 6.4 mph 8.0 mph 69 % 0.0 in
01:07 18.6 °F 12.8 °F 1018.8 in West 4.8 mph 8.0 mph 69 % 0.0 in
01:12 18.5 °F 12.7 °F 1018.8 in West 1.6 mph 8.0 mph 69 % 0.0 in
01:17 18.6 °F 12.8 °F 1018.8 in West 3.2 mph 8.0 mph 69 % 0.0 in
01:22 18.6 °F 12.8 °F 1018.8 in WNW 1.6 mph 8.0 mph 69 % 0.0 in
01:32 18.8 °F 12.8 °F 1018.8 in West 1.6 mph 9.7 mph 68 % 0.0 in
01:42 18.7 °F 12.4 °F 1018.8 in WNW 3.2 mph 8.0 mph 67 % 0.0 in
01:52 18.8 °F 12.3 °F 1018.8 in WNW 4.8 mph 9.7 mph 66 % 0.0 in
02:02 18.9 °F 12.2 °F 1018.8 in West 11.3 mph 12.9 mph 65 % 0.0 in
02:07 19.0 °F 12.3 °F 1018.8 in WNW 4.8 mph 22.5 mph 65 % 0.0 in
02:12 18.9 °F 12.2 °F 1018.8 in WSW 6.4 mph 22.5 mph 65 % 0.0 in
02:22 18.7 °F 12.2 °F 1018.8 in WNW 8.0 mph 17.7 mph 66 % 0.0 in
02:27 18.7 °F 12.2 °F 1018.8 in West 4.8 mph 14.5 mph 66 % 0.0 in
02:32 18.5 °F 12.3 °F 1018.8 in WNW 3.2 mph 14.5 mph 67 % 0.0 in
02:42 18.3 °F 12.3 °F 1018.8 in West 6.4 mph 14.5 mph 68 % 0.0 in
02:47 18.3 °F 12.3 °F 1018.8 in West 11.3 mph 14.5 mph 68 % 0.0 in
02:52 18.2 °F 12.2 °F 1019.2 in West 9.7 mph 14.5 mph 68 % 0.0 in
02:57 18.1 °F 12.1 °F 1019.2 in WSW 4.8 mph 14.5 mph 68 % 0.0 in
03:02 18.0 °F 12.0 °F 1019.2 in West 3.2 mph 14.5 mph 68 % 0.0 in
03:07 17.8 °F 12.0 °F 1019.2 in West 4.8 mph 11.3 mph 69 % 0.0 in
03:12 17.7 °F 12.2 °F 1019.2 in WSW 6.4 mph 11.3 mph 70 % 0.0 in
03:22 17.4 °F 11.9 °F 1019.2 in West 8.0 mph 8.0 mph 70 % 0.0 in
03:32 17.3 °F 12.0 °F 1019.2 in West 3.2 mph 9.7 mph 71 % 0.0 in
03:42 17.2 °F 11.9 °F 1018.8 in WSW 1.6 mph 9.7 mph 71 % 0.0 in
03:47 17.0 °F 11.9 °F 1019.2 in West 1.6 mph 9.7 mph 72 % 0.0 in
03:52 16.9 °F 12.0 °F 1019.2 in SW 4.8 mph 9.7 mph 73 % 0.0 in
03:57 16.8 °F 11.9 °F 1019.2 in West 1.6 mph 6.4 mph 73 % 0.0 in
04:02 16.6 °F 11.9 °F 1019.2 in West 3.2 mph 6.4 mph 74 % 0.0 in
04:07 16.4 °F 11.8 °F 1019.2 in West 1.6 mph 6.4 mph 74 % 0.0 in
04:12 16.4 °F 11.8 °F 1019.2 in WNW 8.0 mph 8.0 mph 74 % 0.0 in
04:17 16.3 °F 11.9 °F 1019.2 in WSW 6.4 mph 8.0 mph 75 % 0.0 in
04:27 16.2 °F 11.8 °F 1019.2 in WSW 1.6 mph 8.0 mph 75 % 0.0 in
04:32 16.1 °F 11.9 °F 1019.2 in WSW 3.2 mph 8.0 mph 76 % 0.0 in
04:37 15.8 °F 11.6 °F 1019.2 in WSW 3.2 mph 6.4 mph 76 % 0.0 in
04:42 15.7 °F 11.7 °F 1019.2 in SW 1.6 mph 6.4 mph 77 % 0.0 in
04:47 15.6 °F 11.6 °F 1019.2 in SSW 3.2 mph 9.7 mph 77 % 0.0 in
04:52 15.5 °F 11.7 °F 1019.2 in SSW 3.2 mph 9.7 mph 78 % 0.0 in
05:02 15.2 °F 11.4 °F 1019.2 in SW 4.8 mph 8.0 mph 78 % 0.0 in
05:12 15.2 °F 11.6 °F 1019.2 in SW 3.2 mph 11.3 mph 79 % 0.0 in
05:22 14.7 °F 11.5 °F 1019.5 in SSW 6.4 mph 11.3 mph 81 % 0.0 in
05:32 14.6 °F 11.6 °F 1019.5 in SW 1.6 mph 9.7 mph 82 % 0.0 in
05:42 14.4 °F 11.4 °F 1019.5 in West 3.2 mph 9.7 mph 82 % 0.0 in
05:52 14.2 °F 11.2 °F 1019.5 in Calm   8.0 mph 82 % 0.0 in
06:02 14.1 °F 11.3 °F 1019.5 in SW 6.4 mph 6.4 mph 83 % 0.0 in
06:07 14.0 °F 11.2 °F 1019.5 in WSW 6.4 mph 8.0 mph 83 % 0.0 in
06:12 13.9 °F 11.1 °F 1019.5 in WSW 1.6 mph 8.0 mph 83 % 0.0 in
06:17 13.8 °F 11.1 °F 1019.5 in Calm   8.0 mph 84 % 0.0 in
06:22 13.7 °F 11.0 °F 1019.5 in Calm   8.0 mph 84 % 0.0 in
06:32 13.3 °F 10.8 °F 1019.9 in SE 1.6 mph 6.4 mph 85 % 0.0 in
06:37 13.2 °F 10.7 °F 1019.9 in Calm   3.2 mph 85 % 0.0 in
06:42 13.4 °F 10.9 °F 1019.9 in South 1.6 mph 3.2 mph 85 % 0.0 in
06:47 13.6 °F 11.1 °F 1019.9 in SW 3.2 mph 4.8 mph 85 % 0.0 in
06:57 13.8 °F 11.1 °F 1019.5 in SW 3.2 mph 4.8 mph 84 % 0.0 in
07:07 13.9 °F 11.4 °F 1019.9 in SSW 1.6 mph 6.4 mph 85 % 0.0 in
07:12 14.2 °F 11.7 °F 1019.9 in SSW 4.8 mph 6.4 mph 85 % 0.0 in
07:17 14.6 °F 12.1 °F 1019.9 in SSW 4.8 mph 6.4 mph 85 % 0.0 in
07:22 14.9 °F 12.2 °F 1019.9 in SW 8.0 mph 8.0 mph 84 % 0.0 in
07:32 15.3 °F 12.2 °F 1019.9 in WSW 6.4 mph 11.3 mph 82 % 0.0 in
07:37 15.4 °F 12.3 °F 1019.9 in WSW 11.3 mph 16.1 mph 82 % 0.0 in
07:42 15.4 °F 12.3 °F 1019.9 in WSW 6.4 mph 16.1 mph 82 % 0.0 in
07:52 15.4 °F 12.3 °F 1019.9 in SW 12.9 mph 17.7 mph 82 % 0.0 in
08:02 15.6 °F 12.5 °F 1019.9 in SW 17.7 mph 19.3 mph 82 % 0.0 in
08:07 15.7 °F 12.8 °F 1019.9 in WSW 9.7 mph 19.3 mph 83 % 0.0 in
08:12 15.8 °F 12.7 °F 1019.9 in WSW 8.0 mph 19.3 mph 82 % 0.0 in
08:17 15.8 °F 12.9 °F 1019.9 in WSW 4.8 mph 19.3 mph 83 % 0.0 in
08:22 16.0 °F 12.9 °F 1019.9 in West 14.5 mph 19.3 mph 82 % 0.0 in
08:32 16.2 °F 13.3 °F 1019.9 in SW 8.0 mph 24.1 mph 83 % 0.0 in
08:37 16.4 °F 13.3 °F 1019.9 in West 6.4 mph 19.3 mph 82 % 0.0 in
08:42 16.6 °F 13.3 °F 1019.9 in WSW 4.8 mph 19.3 mph 81 % 0.0 in
08:47 16.8 °F 13.5 °F 1019.9 in West 8.0 mph 19.3 mph 81 % 0.0 in
08:52 16.9 °F 13.4 °F 1019.9 in WSW 6.4 mph 19.3 mph 80 % 0.0 in
09:02 17.3 °F 14.0 °F 1019.9 in SSW 3.2 mph 19.3 mph 81 % 0.0 in
09:12 17.4 °F 13.7 °F 1019.5 in SW 8.0 mph 20.9 mph 79 % 0.0 in
09:22 17.3 °F 13.6 °F 1019.5 in WSW 8.0 mph 17.7 mph 79 % 0.0 in
09:32 17.4 °F 13.5 °F 1019.5 in WSW 4.8 mph 16.1 mph 78 % 0.0 in
09:37 17.5 °F 13.6 °F 1019.9 in SW 8.0 mph 17.7 mph 78 % 0.0 in
09:42 17.6 °F 13.5 °F 1019.5 in WSW 11.3 mph 17.7 mph 77 % 0.0 in
09:47 17.6 °F 13.7 °F 1019.5 in SSW 9.7 mph 17.7 mph 78 % 0.0 in
09:52 17.8 °F 13.9 °F 1019.9 in SW 9.7 mph 17.7 mph 78 % 0.0 in
10:02 17.9 °F 13.6 °F 1019.5 in WNW 8.0 mph 17.7 mph 76 % 0.0 in
10:12 18.0 °F 13.5 °F 1019.9 in West 6.4 mph 20.9 mph 75 % 0.0 in
10:17 18.0 °F 13.5 °F 1019.9 in West 16.1 mph 25.7 mph 75 % 0.0 in
10:22 18.1 °F 13.8 °F 1019.9 in West 9.7 mph 25.7 mph 76 % 0.0 in
10:32 18.2 °F 13.9 °F 1019.9 in WSW 4.8 mph 25.7 mph 76 % 0.0 in
10:37 18.1 °F 13.8 °F 1019.9 in West 14.5 mph 20.9 mph 76 % 0.0 in
10:42 18.1 °F 14.0 °F 1019.9 in West 6.4 mph 20.9 mph 77 % 0.0 in
10:47 18.3 °F 14.4 °F 1019.9 in West 4.8 mph 20.9 mph 78 % 0.0 in
10:52 18.3 °F 14.4 °F 1019.9 in WSW 17.7 mph 20.9 mph 78 % 0.0 in
11:02 18.1 °F 14.6 °F 1019.9 in West 6.4 mph 17.7 mph 80 % 0.0 in
11:12 18.1 °F 14.6 °F 1019.9 in WSW 14.5 mph 17.7 mph 80 % 0.0 in
11:17 17.9 °F 14.6 °F 1019.9 in WSW 19.3 mph 19.3 mph 81 % 0.0 in
11:22 17.8 °F 14.7 °F 1019.9 in West 9.7 mph 19.3 mph 82 % 0.0 in
11:32 18.1 °F 14.6 °F 1019.9 in WSW 8.0 mph 19.3 mph 80 % 0.0 in
11:37 18.2 °F 14.7 °F 1019.9 in WNW 6.4 mph 16.1 mph 80 % 0.0 in
11:42 18.2 °F 14.9 °F 1019.9 in West 11.3 mph 16.1 mph 81 % 0.0 in
11:52 18.3 °F 14.8 °F 1019.9 in SW 6.4 mph 19.3 mph 80 % 0.0 in
12:02 18.5 °F 15.0 °F 1019.9 in SW 12.9 mph 19.3 mph 80 % 0.0 in
12:07 18.8 °F 15.3 °F 1019.9 in SSW 3.2 mph 19.3 mph 80 % 0.0 in
12:12 18.8 °F 15.1 °F 1019.9 in SSW 9.7 mph 19.3 mph 79 % 0.0 in
12:17 18.9 °F 15.2 °F 1020.2 in WSW 8.0 mph 17.7 mph 79 % 0.0 in
12:22 19.1 °F 15.2 °F 1019.9 in SW 9.7 mph 17.7 mph 78 % 0.0 in
12:32 19.1 °F 15.2 °F 1019.9 in WSW 3.2 mph 17.7 mph 78 % 0.0 in
12:42 19.4 °F 15.5 °F 1019.9 in SW 8.0 mph 17.7 mph 78 % 0.0 in
12:52 19.5 °F 15.6 °F 1019.9 in SW 12.9 mph 17.7 mph 78 % 0.0 in
13:02 19.9 °F 15.5 °F 1019.9 in SSW 4.8 mph 19.3 mph 76 % 0.0 in
13:12 20.2 °F 15.8 °F 1019.9 in West 8.0 mph 17.7 mph 76 % 0.0 in
13:17 20.2 °F 15.6 °F 1019.9 in West 6.4 mph 17.7 mph 75 % 0.0 in
13:22 20.3 °F 15.9 °F 1019.9 in West 11.3 mph 17.7 mph 76 % 0.0 in
13:32 20.6 °F 15.8 °F 1019.9 in West 9.7 mph 17.7 mph 74 % 0.0 in
13:37 20.7 °F 16.1 °F 1019.9 in WSW 4.8 mph 17.7 mph 75 % 0.0 in
13:42 20.9 °F 15.7 °F 1019.9 in West 8.0 mph 17.7 mph 72 % 0.0 in
13:47 20.8 °F 15.6 °F 1019.9 in SW 11.3 mph 17.7 mph 72 % 0.0 in
13:52 20.9 °F 15.4 °F 1019.9 in West 4.8 mph 22.5 mph 71 % 0.0 in
13:57 20.8 °F 15.6 °F 1019.9 in WSW 11.3 mph 22.5 mph 72 % 0.0 in
14:02 20.7 °F 15.7 °F 1019.9 in SW 4.8 mph 16.1 mph 73 % 0.0 in
14:12 20.9 °F 15.7 °F 1019.9 in SW 9.7 mph 17.7 mph 72 % 0.0 in
14:17 21.1 °F 15.4 °F 1019.5 in WSW 11.3 mph 17.7 mph 70 % 0.0 in
14:22 21.2 °F 15.3 °F 1019.5 in WSW 8.0 mph 17.7 mph 69 % 0.0 in
14:27 21.6 °F 15.4 °F 1019.5 in WSW 6.4 mph 20.9 mph 68 % 0.0 in
14:32 21.7 °F 15.8 °F 1019.5 in West 6.4 mph 20.9 mph 69 % 0.0 in
14:37 21.7 °F 15.5 °F 1019.5 in WNW 6.4 mph 19.3 mph 68 % 0.0 in
14:42 21.7 °F 15.5 °F 1019.5 in SW 11.3 mph 19.3 mph 68 % 0.0 in
14:47 21.8 °F 15.6 °F 1019.5 in West 11.3 mph 19.3 mph 68 % 0.0 in
14:52 21.8 °F 15.6 °F 1019.5 in West 4.8 mph 19.3 mph 68 % 0.0 in
14:57 21.8 °F 15.6 °F 1019.5 in WNW 3.2 mph 17.7 mph 68 % 0.0 in
15:02 21.9 °F 15.5 °F 1019.5 in WNW 8.0 mph 17.7 mph 67 % 0.0 in
15:12 22.2 °F 15.8 °F 1019.2 in NNW 3.2 mph 14.5 mph 67 % 0.0 in
15:17 22.4 °F 15.5 °F 1019.2 in WNW 6.4 mph 12.9 mph 65 % 0.0 in
15:22 22.2 °F 15.3 °F 1019.2 in West 8.0 mph 12.9 mph 65 % 0.0 in
15:27 22.4 °F 15.7 °F 1019.2 in West 9.7 mph 17.7 mph 66 % 0.0 in
15:32 22.9 °F 16.0 °F 1019.2 in West 12.9 mph 17.7 mph 65 % 0.0 in
15:42 22.9 °F 15.5 °F 1018.8 in WNW 11.3 mph 17.7 mph 63 % 0.0 in
15:47 23.1 °F 15.4 °F 1018.8 in WSW 12.9 mph 17.7 mph 62 % 0.0 in
15:52 23.1 °F 15.4 °F 1018.8 in West 9.7 mph 17.7 mph 62 % 0.0 in
15:57 22.9 °F 15.7 °F 1018.8 in WNW 8.0 mph 16.1 mph 64 % 0.0 in
16:02 23.1 °F 15.4 °F 1018.8 in WSW 3.2 mph 16.1 mph 62 % 0.0 in
16:12 23.2 °F 15.3 °F 1018.5 in WSW 8.0 mph 14.5 mph 61 % 0.0 in
16:17 23.2 °F 15.5 °F 1018.5 in WSW 4.8 mph 16.1 mph 62 % 0.0 in
16:22 23.4 °F 15.2 °F 1018.5 in WSW 11.3 mph 16.1 mph 60 % 0.0 in
16:27 23.5 °F 14.8 °F 1018.2 in WNW 8.0 mph 19.3 mph 58 % 0.0 in
16:32 23.6 °F 14.9 °F 1018.2 in West 8.0 mph 19.3 mph 58 % 0.0 in
16:42 24.2 °F 14.0 °F 1018.2 in WNW 6.4 mph 22.5 mph 53 % 0.0 in
16:52 24.4 °F 14.8 °F 1017.8 in WNW 12.9 mph 19.3 mph 55 % 0.0 in
16:57 24.5 °F 14.3 °F 1017.8 in WSW 3.2 mph 24.1 mph 53 % 0.0 in
17:02 24.5 °F 14.6 °F 1017.8 in West 9.7 mph 24.1 mph 54 % 0.0 in
17:12 24.1 °F 14.8 °F 1017.8 in SSW 4.8 mph 24.1 mph 56 % 0.0 in
17:17 23.9 °F 14.9 °F 1017.8 in WSW 6.4 mph 20.9 mph 57 % 0.0 in
17:22 24.1 °F 15.0 °F 1017.8 in WNW 3.2 mph 20.9 mph 57 % 0.0 in
17:27 24.3 °F 15.2 °F 1017.8 in West 8.0 mph 12.9 mph 57 % 0.0 in
17:32 24.2 °F 14.9 °F 1017.8 in WNW 9.7 mph 12.9 mph 56 % 0.0 in
17:37 24.3 °F 15.2 °F 1017.8 in WNW 6.4 mph 19.3 mph 57 % 0.0 in
17:42 24.6 °F 15.0 °F 1017.8 in WSW 8.0 mph 19.3 mph 55 % 0.0 in
17:52 24.8 °F 15.1 °F 1017.8 in WNW 4.8 mph 19.3 mph 55 % 0.0 in
17:57 24.6 °F 14.7 °F 1017.5 in WNW 9.7 mph 17.7 mph 54 % 0.0 in
18:02 24.4 °F 14.8 °F 1017.5 in NW 4.8 mph 17.7 mph 55 % 0.0 in
18:12 24.9 °F 15.5 °F 1017.5 in West 3.2 mph 17.7 mph 56 % 0.0 in
18:17 25.1 °F 15.1 °F 1017.5 in West 3.2 mph 14.5 mph 54 % 0.0 in
18:22 25.0 °F 15.0 °F 1017.5 in West 6.4 mph 14.5 mph 54 % 0.0 in
18:32 24.5 °F 15.4 °F 1017.2 in WSW 3.2 mph 14.5 mph 57 % 0.0 in
18:42 25.1 °F 15.4 °F 1017.2 in West 1.6 mph 11.3 mph 55 % 0.0 in
18:47 25.3 °F 15.3 °F 1017.2 in WNW 6.4 mph 11.3 mph 54 % 0.0 in
18:57 24.6 °F 15.2 °F 1017.2 in West 6.4 mph 17.7 mph 56 % 0.0 in
19:02 24.4 °F 15.3 °F 1017.5 in SW 6.4 mph 17.7 mph 57 % 0.0 in
19:12 24.2 °F 15.4 °F 1017.2 in SW 3.2 mph 17.7 mph 58 % 0.0 in
19:22 24.9 °F 16.1 °F 1017.2 in SW 4.8 mph 11.3 mph 58 % 0.0 in
19:27 24.9 °F 15.8 °F 1017.2 in SW 8.0 mph 9.7 mph 57 % 0.0 in
19:32 24.6 °F 15.5 °F 1017.2 in WSW 8.0 mph 9.7 mph 57 % 0.0 in
19:42 24.9 °F 15.8 °F 1017.2 in SW 1.6 mph 9.7 mph 57 % 0.0 in
19:47 25.1 °F 15.7 °F 1017.2 in SW 8.0 mph 9.7 mph 56 % 0.0 in
19:57 25.1 °F 16.0 °F 1017.2 in SW 6.4 mph 9.7 mph 57 % 0.0 in
20:02 25.2 °F 15.8 °F 1017.2 in WSW 1.6 mph 9.7 mph 56 % 0.0 in
20:12 25.2 °F 15.5 °F 1016.8 in WSW 3.2 mph 9.7 mph 55 % 0.0 in
20:17 25.3 °F 15.9 °F 1016.8 in WNW 3.2 mph 11.3 mph 56 % 0.0 in
20:27 25.3 °F 15.6 °F 1016.8 in West 4.8 mph 6.4 mph 55 % 0.0 in
20:32 25.1 °F 15.7 °F 1016.8 in NW 1.6 mph 6.4 mph 56 % 0.0 in
20:42 25.2 °F 15.8 °F 1016.8 in Calm   6.4 mph 56 % 0.0 in
20:47 25.6 °F 15.9 °F 1016.8 in WNW 1.6 mph 8.0 mph 55 % 0.0 in
20:52 25.4 °F 15.7 °F 1016.8 in Calm   8.0 mph 55 % 0.0 in
20:57 25.3 °F 15.6 °F 1016.8 in Calm   3.2 mph 55 % 0.0 in
21:02 25.5 °F 15.8 °F 1016.8 in Calm   3.2 mph 55 % 0.0 in
21:12 25.3 °F 15.6 °F 1016.5 in Calm   3.2 mph 55 % 0.0 in
21:17 25.2 °F 15.8 °F 1016.8 in Calm   1.6 mph 56 % 0.0 in
21:27 24.7 °F 15.9 °F 1016.5 in Calm   1.6 mph 58 % 0.0 in
21:32 24.2 °F 15.7 °F 1016.5 in Calm   1.6 mph 59 % 0.0 in
21:37 23.8 °F 15.6 °F 1016.8 in Calm   3.2 mph 60 % 0.0 in
21:42 23.5 °F 15.5 °F 1016.8 in Calm   3.2 mph 61 % 0.0 in
21:47 23.1 °F 15.7 °F 1016.8 in Calm   3.2 mph 63 % 0.0 in
21:52 22.5 °F 15.3 °F 1016.8 in Calm   1.6 mph 64 % 0.0 in
21:57 22.1 °F 15.4 °F 1016.8 in Calm     66 % 0.0 in
22:02 21.7 °F 15.3 °F 1016.8 in Calm     67 % 0.0 in
22:12 21.1 °F 15.2 °F 1017.2 in Calm     69 % 0.0 in
22:17 20.9 °F 15.4 °F 1017.2 in Calm   1.6 mph 71 % 0.0 in
22:22 20.6 °F 15.2 °F 1017.2 in Calm   1.6 mph 71 % 0.0 in
22:27 20.3 °F 15.1 °F 1017.2 in Calm     72 % 0.0 in
22:32 20.3 °F 15.3 °F 1017.2 in Calm     73 % 0.0 in
22:37 20.1 °F 15.1 °F 1017.2 in Calm     73 % 0.0 in
22:42 19.9 °F 14.9 °F 1017.2 in Calm     73 % 0.0 in
22:47 19.8 °F 15.0 °F 1017.2 in Calm     74 % 0.0 in
22:52 19.5 °F 14.9 °F 1017.2 in Calm     75 % 0.0 in
22:57 19.4 °F 15.1 °F 1017.2 in Calm     76 % 0.0 in
23:02 19.3 °F 15.2 °F 1017.2 in Calm     77 % 0.0 in
23:12 19.1 °F 15.2 °F 1017.2 in Calm     78 % 0.0 in
23:17 18.8 °F 15.1 °F 1017.2 in Calm     79 % 0.0 in
23:22 18.6 °F 14.9 °F 1017.2 in Calm     79 % 0.0 in
23:27 18.6 °F 15.1 °F 1017.2 in Calm     80 % 0.0 in
23:32 18.6 °F 15.1 °F 1017.2 in Calm     80 % 0.0 in
23:37 18.4 °F 14.9 °F 1017.2 in Calm     80 % 0.0 in
23:42 18.4 °F 14.9 °F 1017.2 in Calm     80 % 0.0 in
23:52 17.9 °F 14.6 °F 1017.2 in Calm     81 % 0.0 in
Meteo18
Compliments of Weather Underground - 4 mb

Script developed by  Jim McMurry - jmcmurry@mwt.net Adapted for the template by  Wim van der Kuil - Leuven-Template.eu

You find our weather info also at:

European Weather Network

Weather Underground

Equipment we use:

Weather-station
Davis Vue

Weather-program
Meteobridge

Weather-server
Raspberry PI 2 B+

Provider
1 and 1

Davis Vue

Meteobridge

Raspberry PI 2 B+

1 and 1